sensor_id;sensor_type;location;lat;lon;timestamp;P1;durP1;ratioP1;P2;durP2;ratioP2
79124;SDS011;68527;39.470;-0.376;2023-11-21T00:01:04;12.90;;;9.30;;
79124;SDS011;68527;39.470;-0.376;2023-11-21T00:03:32;12.10;;;8.10;;
79124;SDS011;68527;39.470;-0.376;2023-11-21T00:05:58;10.70;;;8.50;;
79124;SDS011;68527;39.470;-0.376;2023-11-21T00:08:23;12.50;;;8.40;;
79124;SDS011;68527;39.470;-0.376;2023-11-21T00:10:49;10.90;;;8.80;;
79124;SDS011;68527;39.470;-0.376;2023-11-21T00:13:14;11.90;;;8.90;;
79124;SDS011;68527;39.470;-0.376;2023-11-21T00:15:41;10.10;;;8.10;;
79124;SDS011;68527;39.470;-0.376;2023-11-21T00:18:06;12.90;;;9.10;;
79124;SDS011;68527;39.470;-0.376;2023-11-21T00:20:32;12.10;;;8.30;;
79124;SDS011;68527;39.470;-0.376;2023-11-21T00:22:57;10.80;;;8.40;;
79124;SDS011;68527;39.470;-0.376;2023-11-21T00:25:26;11.40;;;8.20;;
79124;SDS011;68527;39.470;-0.376;2023-11-21T00:27:52;10.40;;;8.30;;
79124;SDS011;68527;39.470;-0.376;2023-11-21T00:30:19;9.90;;;8.20;;
79124;SDS011;68527;39.470;-0.376;2023-11-21T00:32:46;10.60;;;8.60;;
79124;SDS011;68527;39.470;-0.376;2023-11-21T00:35:13;11.00;;;8.40;;
79124;SDS011;68527;39.470;-0.376;2023-11-21T00:37:38;11.90;;;8.70;;
79124;SDS011;68527;39.470;-0.376;2023-11-21T00:40:04;12.20;;;8.50;;
79124;SDS011;68527;39.470;-0.376;2023-11-21T00:42:31;11.60;;;9.00;;
79124;SDS011;68527;39.470;-0.376;2023-11-21T00:45:00;10.70;;;8.60;;
79124;SDS011;68527;39.470;-0.376;2023-11-21T00:47:25;11.00;;;8.40;;
79124;SDS011;68527;39.470;-0.376;2023-11-21T00:49:51;11.50;;;8.40;;
79124;SDS011;68527;39.470;-0.376;2023-11-21T00:52:16;11.40;;;8.50;;
79124;SDS011;68527;39.470;-0.376;2023-11-21T00:54:42;10.20;;;8.20;;
79124;SDS011;68527;39.470;-0.376;2023-11-21T00:57:09;12.50;;;8.50;;
79124;SDS011;68527;39.470;-0.376;2023-11-21T00:59:36;11.40;;;8.70;;
79124;SDS011;68527;39.470;-0.376;2023-11-21T01:02:02;10.40;;;8.30;;
79124;SDS011;68527;39.470;-0.376;2023-11-21T01:06:59;10.30;;;7.60;;
79124;SDS011;68527;39.470;-0.376;2023-11-21T01:09:25;10.70;;;8.20;;
79124;SDS011;68527;39.470;-0.376;2023-11-21T01:11:52;10.90;;;8.60;;
79124;SDS011;68527;39.470;-0.376;2023-11-21T01:14:18;12.20;;;8.80;;
79124;SDS011;68527;39.470;-0.376;2023-11-21T01:16:44;10.10;;;8.30;;
79124;SDS011;68527;39.470;-0.376;2023-11-21T01:19:09;11.90;;;8.20;;
79124;SDS011;68527;39.470;-0.376;2023-11-21T01:21:36;11.00;;;8.10;;
79124;SDS011;68527;39.470;-0.376;2023-11-21T01:24:02;11.40;;;9.10;;
79124;SDS011;68527;39.470;-0.376;2023-11-21T01:26:28;10.90;;;8.40;;
79124;SDS011;68527;39.470;-0.376;2023-11-21T01:28:54;11.70;;;8.90;;
79124;SDS011;68527;39.470;-0.376;2023-11-21T01:31:20;11.40;;;8.00;;
79124;SDS011;68527;39.470;-0.376;2023-11-21T01:33:46;9.50;;;7.90;;
79124;SDS011;68527;39.470;-0.376;2023-11-21T01:36:11;10.50;;;8.20;;
79124;SDS011;68527;39.470;-0.376;2023-11-21T01:38:37;11.20;;;8.70;;
79124;SDS011;68527;39.470;-0.376;2023-11-21T01:41:04;10.60;;;8.80;;
79124;SDS011;68527;39.470;-0.376;2023-11-21T01:43:31;11.20;;;8.30;;
79124;SDS011;68527;39.470;-0.376;2023-11-21T01:45:57;11.00;;;8.70;;
79124;SDS011;68527;39.470;-0.376;2023-11-21T01:48:25;10.30;;;7.90;;
79124;SDS011;68527;39.470;-0.376;2023-11-21T01:50:51;10.50;;;8.20;;
79124;SDS011;68527;39.470;-0.376;2023-11-21T01:53:17;12.10;;;8.60;;
79124;SDS011;68527;39.470;-0.376;2023-11-21T01:55:43;12.40;;;9.70;;
79124;SDS011;68527;39.470;-0.376;2023-11-21T01:58:11;10.20;;;8.40;;
79124;SDS011;68527;39.470;-0.376;2023-11-21T02:00:37;10.00;;;7.90;;
79124;SDS011;68527;39.470;-0.376;2023-11-21T02:03:03;11.40;;;8.70;;
79124;SDS011;68527;39.470;-0.376;2023-11-21T02:05:29;10.90;;;8.20;;
79124;SDS011;68527;39.470;-0.376;2023-11-21T02:07:56;9.50;;;7.90;;
79124;SDS011;68527;39.470;-0.376;2023-11-21T02:10:21;10.50;;;8.00;;
79124;SDS011;68527;39.470;-0.376;2023-11-21T02:12:51;10.20;;;8.40;;
79124;SDS011;68527;39.470;-0.376;2023-11-21T02:15:18;10.10;;;7.60;;
79124;SDS011;68527;39.470;-0.376;2023-11-21T02:17:48;10.80;;;8.00;;
79124;SDS011;68527;39.470;-0.376;2023-11-21T02:20:17;10.00;;;7.50;;
79124;SDS011;68527;39.470;-0.376;2023-11-21T02:22:55;9.90;;;8.00;;
79124;SDS011;68527;39.470;-0.376;2023-11-21T02:25:26;10.20;;;7.40;;
79124;SDS011;68527;39.470;-0.376;2023-11-21T02:27:55;9.30;;;7.30;;
79124;SDS011;68527;39.470;-0.376;2023-11-21T02:30:29;9.00;;;7.20;;
79124;SDS011;68527;39.470;-0.376;2023-11-21T02:32:57;8.80;;;7.50;;
79124;SDS011;68527;39.470;-0.376;2023-11-21T02:35:23;10.10;;;7.60;;
79124;SDS011;68527;39.470;-0.376;2023-11-21T02:37:52;9.60;;;7.30;;
79124;SDS011;68527;39.470;-0.376;2023-11-21T02:40:18;10.60;;;7.40;;
79124;SDS011;68527;39.470;-0.376;2023-11-21T02:45:14;8.90;;;7.20;;
79124;SDS011;68527;39.470;-0.376;2023-11-21T02:47:43;8.40;;;7.40;;
79124;SDS011;68527;39.470;-0.376;2023-11-21T02:50:12;10.30;;;7.40;;
79124;SDS011;68527;39.470;-0.376;2023-11-21T02:52:38;9.70;;;7.20;;
79124;SDS011;68527;39.470;-0.376;2023-11-21T02:55:05;10.60;;;7.60;;
79124;SDS011;68527;39.470;-0.376;2023-11-21T02:57:35;9.60;;;7.50;;
79124;SDS011;68527;39.470;-0.376;2023-11-21T03:00:01;9.40;;;7.70;;
79124;SDS011;68527;39.470;-0.376;2023-11-21T03:02:27;8.90;;;7.00;;
79124;SDS011;68527;39.470;-0.376;2023-11-21T03:04:53;9.10;;;7.30;;
79124;SDS011;68527;39.470;-0.376;2023-11-21T03:07:20;10.50;;;7.20;;
79124;SDS011;68527;39.470;-0.376;2023-11-21T03:09:45;10.00;;;7.10;;
79124;SDS011;68527;39.470;-0.376;2023-11-21T03:12:11;9.50;;;7.60;;
79124;SDS011;68527;39.470;-0.376;2023-11-21T03:14:41;9.30;;;6.70;;
79124;SDS011;68527;39.470;-0.376;2023-11-21T03:17:06;9.00;;;7.40;;
79124;SDS011;68527;39.470;-0.376;2023-11-21T03:19:32;9.80;;;7.60;;
79124;SDS011;68527;39.470;-0.376;2023-11-21T03:21:57;8.20;;;6.50;;
79124;SDS011;68527;39.470;-0.376;2023-11-21T03:24:24;8.70;;;6.30;;
79124;SDS011;68527;39.470;-0.376;2023-11-21T03:26:51;7.70;;;6.70;;
79124;SDS011;68527;39.470;-0.376;2023-11-21T03:29:17;9.50;;;6.90;;
79124;SDS011;68527;39.470;-0.376;2023-11-21T03:31:42;9.40;;;7.30;;
79124;SDS011;68527;39.470;-0.376;2023-11-21T03:34:14;8.90;;;7.10;;
79124;SDS011;68527;39.470;-0.376;2023-11-21T03:36:43;7.50;;;6.70;;
79124;SDS011;68527;39.470;-0.376;2023-11-21T03:39:08;9.80;;;6.70;;
79124;SDS011;68527;39.470;-0.376;2023-11-21T03:41:34;7.80;;;6.70;;
79124;SDS011;68527;39.470;-0.376;2023-11-21T03:44:00;8.80;;;6.30;;
79124;SDS011;68527;39.470;-0.376;2023-11-21T03:46:26;9.00;;;6.70;;
79124;SDS011;68527;39.470;-0.376;2023-11-21T03:48:52;8.80;;;6.40;;
79124;SDS011;68527;39.470;-0.376;2023-11-21T03:51:17;8.40;;;6.70;;
79124;SDS011;68527;39.470;-0.376;2023-11-21T03:53:43;11.20;;;6.80;;
79124;SDS011;68527;39.470;-0.376;2023-11-21T03:56:09;8.30;;;6.30;;
79124;SDS011;68527;39.470;-0.376;2023-11-21T03:58:36;9.70;;;6.60;;
79124;SDS011;68527;39.470;-0.376;2023-11-21T04:01:01;8.60;;;6.40;;
79124;SDS011;68527;39.470;-0.376;2023-11-21T04:03:27;8.40;;;6.90;;
79124;SDS011;68527;39.470;-0.376;2023-11-21T04:05:52;9.40;;;6.90;;
79124;SDS011;68527;39.470;-0.376;2023-11-21T04:08:18;8.00;;;6.10;;
79124;SDS011;68527;39.470;-0.376;2023-11-21T04:10:45;8.80;;;6.20;;
79124;SDS011;68527;39.470;-0.376;2023-11-21T04:13:10;10.70;;;6.70;;
79124;SDS011;68527;39.470;-0.376;2023-11-21T04:15:35;8.00;;;6.30;;
79124;SDS011;68527;39.470;-0.376;2023-11-21T04:18:01;9.90;;;6.70;;
79124;SDS011;68527;39.470;-0.376;2023-11-21T04:20:26;9.10;;;7.10;;
79124;SDS011;68527;39.470;-0.376;2023-11-21T04:22:53;7.80;;;6.00;;
79124;SDS011;68527;39.470;-0.376;2023-11-21T04:25:19;8.00;;;6.60;;
79124;SDS011;68527;39.470;-0.376;2023-11-21T04:27:45;8.10;;;6.20;;
79124;SDS011;68527;39.470;-0.376;2023-11-21T04:30:11;7.60;;;6.20;;
79124;SDS011;68527;39.470;-0.376;2023-11-21T04:32:38;8.50;;;6.10;;
79124;SDS011;68527;39.470;-0.376;2023-11-21T04:35:04;8.60;;;6.40;;
79124;SDS011;68527;39.470;-0.376;2023-11-21T04:37:30;8.60;;;6.20;;
79124;SDS011;68527;39.470;-0.376;2023-11-21T04:39:56;10.60;;;6.40;;
79124;SDS011;68527;39.470;-0.376;2023-11-21T04:42:23;7.70;;;5.90;;
79124;SDS011;68527;39.470;-0.376;2023-11-21T04:44:48;8.00;;;6.80;;
79124;SDS011;68527;39.470;-0.376;2023-11-21T04:47:14;8.10;;;5.80;;
79124;SDS011;68527;39.470;-0.376;2023-11-21T04:52:10;7.10;;;5.70;;
79124;SDS011;68527;39.470;-0.376;2023-11-21T04:54:35;6.90;;;6.00;;
79124;SDS011;68527;39.470;-0.376;2023-11-21T04:57:01;9.00;;;6.10;;
79124;SDS011;68527;39.470;-0.376;2023-11-21T04:59:27;11.60;;;6.60;;
79124;SDS011;68527;39.470;-0.376;2023-11-21T05:01:55;7.60;;;5.90;;
79124;SDS011;68527;39.470;-0.376;2023-11-21T05:04:20;7.90;;;6.00;;
79124;SDS011;68527;39.470;-0.376;2023-11-21T05:06:47;8.50;;;5.80;;
79124;SDS011;68527;39.470;-0.376;2023-11-21T05:09:13;7.60;;;5.80;;
79124;SDS011;68527;39.470;-0.376;2023-11-21T05:11:40;8.00;;;6.20;;
79124;SDS011;68527;39.470;-0.376;2023-11-21T05:14:06;9.20;;;6.10;;
79124;SDS011;68527;39.470;-0.376;2023-11-21T05:16:31;7.90;;;5.80;;
79124;SDS011;68527;39.470;-0.376;2023-11-21T05:18:57;8.20;;;6.20;;
79124;SDS011;68527;39.470;-0.376;2023-11-21T05:21:27;8.20;;;5.60;;
79124;SDS011;68527;39.470;-0.376;2023-11-21T05:23:52;9.50;;;6.20;;
79124;SDS011;68527;39.470;-0.376;2023-11-21T05:26:18;8.30;;;5.80;;
79124;SDS011;68527;39.470;-0.376;2023-11-21T05:28:43;7.00;;;5.40;;
79124;SDS011;68527;39.470;-0.376;2023-11-21T05:31:10;9.60;;;6.30;;
79124;SDS011;68527;39.470;-0.376;2023-11-21T05:33:36;6.80;;;5.60;;
79124;SDS011;68527;39.470;-0.376;2023-11-21T05:36:02;6.70;;;5.40;;
79124;SDS011;68527;39.470;-0.376;2023-11-21T05:38:28;6.80;;;5.20;;
79124;SDS011;68527;39.470;-0.376;2023-11-21T05:40:56;7.60;;;5.80;;
79124;SDS011;68527;39.470;-0.376;2023-11-21T05:43:23;7.20;;;5.20;;
79124;SDS011;68527;39.470;-0.376;2023-11-21T05:45:49;8.00;;;5.30;;
79124;SDS011;68527;39.470;-0.376;2023-11-21T05:48:15;8.10;;;5.50;;
79124;SDS011;68527;39.470;-0.376;2023-11-21T05:53:06;5.60;;;4.90;;
79124;SDS011;68527;39.470;-0.376;2023-11-21T05:55:32;6.60;;;5.40;;
79124;SDS011;68527;39.470;-0.376;2023-11-21T05:57:58;7.10;;;5.20;;
79124;SDS011;68527;39.470;-0.376;2023-11-21T06:00:25;7.70;;;5.50;;
79124;SDS011;68527;39.470;-0.376;2023-11-21T06:02:53;7.10;;;5.20;;
79124;SDS011;68527;39.470;-0.376;2023-11-21T06:05:19;7.00;;;5.00;;
79124;SDS011;68527;39.470;-0.376;2023-11-21T06:07:50;7.30;;;5.00;;
79124;SDS011;68527;39.470;-0.376;2023-11-21T06:10:17;7.00;;;5.20;;
79124;SDS011;68527;39.470;-0.376;2023-11-21T06:12:44;8.40;;;5.20;;
79124;SDS011;68527;39.470;-0.376;2023-11-21T06:17:40;6.60;;;4.20;;
79124;SDS011;68527;39.470;-0.376;2023-11-21T06:20:08;22.70;;;5.20;;
79124;SDS011;68527;39.470;-0.376;2023-11-21T06:22:39;6.40;;;4.10;;
79124;SDS011;68527;39.470;-0.376;2023-11-21T06:25:06;6.50;;;4.20;;
79124;SDS011;68527;39.470;-0.376;2023-11-21T06:27:36;6.40;;;4.50;;
79124;SDS011;68527;39.470;-0.376;2023-11-21T06:30:04;7.00;;;4.10;;
79124;SDS011;68527;39.470;-0.376;2023-11-21T06:32:30;7.00;;;4.00;;
79124;SDS011;68527;39.470;-0.376;2023-11-21T06:34:56;7.40;;;3.80;;
79124;SDS011;68527;39.470;-0.376;2023-11-21T06:37:26;6.20;;;4.00;;
79124;SDS011;68527;39.470;-0.376;2023-11-21T06:39:52;8.60;;;4.30;;
79124;SDS011;68527;39.470;-0.376;2023-11-21T06:42:19;8.10;;;4.30;;
79124;SDS011;68527;39.470;-0.376;2023-11-21T06:44:45;10.10;;;4.30;;
79124;SDS011;68527;39.470;-0.376;2023-11-21T06:47:13;10.50;;;4.50;;
79124;SDS011;68527;39.470;-0.376;2023-11-21T06:49:42;7.30;;;4.30;;
79124;SDS011;68527;39.470;-0.376;2023-11-21T06:52:08;8.80;;;4.40;;
79124;SDS011;68527;39.470;-0.376;2023-11-21T06:54:34;9.00;;;4.50;;
79124;SDS011;68527;39.470;-0.376;2023-11-21T06:57:02;7.90;;;4.30;;
79124;SDS011;68527;39.470;-0.376;2023-11-21T06:59:30;7.20;;;3.80;;
79124;SDS011;68527;39.470;-0.376;2023-11-21T07:01:56;7.50;;;4.40;;
79124;SDS011;68527;39.470;-0.376;2023-11-21T07:04:23;8.20;;;4.10;;
79124;SDS011;68527;39.470;-0.376;2023-11-21T07:06:51;6.70;;;3.80;;
79124;SDS011;68527;39.470;-0.376;2023-11-21T07:09:17;8.80;;;3.90;;
79124;SDS011;68527;39.470;-0.376;2023-11-21T07:11:45;10.00;;;4.20;;
79124;SDS011;68527;39.470;-0.376;2023-11-21T07:14:10;7.60;;;3.60;;
79124;SDS011;68527;39.470;-0.376;2023-11-21T07:16:37;6.20;;;3.80;;
79124;SDS011;68527;39.470;-0.376;2023-11-21T07:19:06;10.60;;;3.70;;
79124;SDS011;68527;39.470;-0.376;2023-11-21T07:21:33;9.10;;;3.90;;
79124;SDS011;68527;39.470;-0.376;2023-11-21T07:24:05;11.00;;;3.70;;
79124;SDS011;68527;39.470;-0.376;2023-11-21T07:26:33;8.90;;;3.70;;
79124;SDS011;68527;39.470;-0.376;2023-11-21T07:29:00;6.50;;;3.50;;
79124;SDS011;68527;39.470;-0.376;2023-11-21T07:31:26;8.90;;;3.40;;
79124;SDS011;68527;39.470;-0.376;2023-11-21T07:33:54;9.00;;;3.80;;
79124;SDS011;68527;39.470;-0.376;2023-11-21T07:36:22;6.90;;;3.40;;
79124;SDS011;68527;39.470;-0.376;2023-11-21T07:38:48;11.60;;;3.30;;
79124;SDS011;68527;39.470;-0.376;2023-11-21T07:41:15;6.20;;;3.20;;
79124;SDS011;68527;39.470;-0.376;2023-11-21T07:43:41;9.60;;;3.40;;
79124;SDS011;68527;39.470;-0.376;2023-11-21T07:46:07;8.50;;;3.80;;
79124;SDS011;68527;39.470;-0.376;2023-11-21T07:51:00;9.00;;;3.40;;
79124;SDS011;68527;39.470;-0.376;2023-11-21T07:53:28;5.10;;;2.70;;
79124;SDS011;68527;39.470;-0.376;2023-11-21T07:55:55;10.10;;;3.40;;
79124;SDS011;68527;39.470;-0.376;2023-11-21T07:58:22;7.80;;;3.60;;
79124;SDS011;68527;39.470;-0.376;2023-11-21T08:00:48;6.70;;;2.90;;
79124;SDS011;68527;39.470;-0.376;2023-11-21T08:03:14;5.60;;;3.30;;
79124;SDS011;68527;39.470;-0.376;2023-11-21T08:05:41;10.30;;;2.90;;
79124;SDS011;68527;39.470;-0.376;2023-11-21T08:08:08;7.30;;;3.20;;
79124;SDS011;68527;39.470;-0.376;2023-11-21T08:10:34;7.50;;;2.90;;
79124;SDS011;68527;39.470;-0.376;2023-11-21T08:13:00;7.30;;;3.10;;
79124;SDS011;68527;39.470;-0.376;2023-11-21T08:15:26;7.20;;;2.70;;
79124;SDS011;68527;39.470;-0.376;2023-11-21T08:17:53;5.80;;;2.60;;
79124;SDS011;68527;39.470;-0.376;2023-11-21T08:20:18;6.20;;;2.80;;
79124;SDS011;68527;39.470;-0.376;2023-11-21T08:22:44;7.70;;;2.30;;
79124;SDS011;68527;39.470;-0.376;2023-11-21T08:25:10;6.60;;;3.10;;
79124;SDS011;68527;39.470;-0.376;2023-11-21T08:27:38;8.80;;;2.90;;
79124;SDS011;68527;39.470;-0.376;2023-11-21T08:30:04;9.10;;;3.10;;
79124;SDS011;68527;39.470;-0.376;2023-11-21T08:32:30;12.60;;;3.70;;
79124;SDS011;68527;39.470;-0.376;2023-11-21T08:35:00;8.50;;;2.60;;
79124;SDS011;68527;39.470;-0.376;2023-11-21T08:37:26;10.20;;;2.30;;
79124;SDS011;68527;39.470;-0.376;2023-11-21T08:39:57;7.50;;;2.00;;
79124;SDS011;68527;39.470;-0.376;2023-11-21T08:42:26;5.40;;;1.70;;
79124;SDS011;68527;39.470;-0.376;2023-11-21T08:44:55;5.20;;;1.30;;
79124;SDS011;68527;39.470;-0.376;2023-11-21T08:47:25;5.50;;;1.80;;
79124;SDS011;68527;39.470;-0.376;2023-11-21T08:49:51;8.20;;;1.80;;
79124;SDS011;68527;39.470;-0.376;2023-11-21T08:52:20;1.80;;;0.90;;
79124;SDS011;68527;39.470;-0.376;2023-11-21T08:54:49;3.80;;;1.60;;
79124;SDS011;68527;39.470;-0.376;2023-11-21T08:57:24;5.80;;;1.80;;
79124;SDS011;68527;39.470;-0.376;2023-11-21T08:59:51;5.40;;;1.60;;
79124;SDS011;68527;39.470;-0.376;2023-11-21T09:02:27;6.90;;;1.40;;
79124;SDS011;68527;39.470;-0.376;2023-11-21T09:04:52;3.50;;;1.50;;
79124;SDS011;68527;39.470;-0.376;2023-11-21T09:07:21;5.50;;;1.50;;
79124;SDS011;68527;39.470;-0.376;2023-11-21T09:09:47;5.10;;;1.30;;
79124;SDS011;68527;39.470;-0.376;2023-11-21T09:12:14;4.60;;;1.20;;
79124;SDS011;68527;39.470;-0.376;2023-11-21T09:14:41;3.10;;;1.20;;
79124;SDS011;68527;39.470;-0.376;2023-11-21T09:17:09;3.40;;;1.50;;
79124;SDS011;68527;39.470;-0.376;2023-11-21T09:19:39;6.30;;;1.70;;
79124;SDS011;68527;39.470;-0.376;2023-11-21T09:22:05;5.20;;;1.60;;
79124;SDS011;68527;39.470;-0.376;2023-11-21T09:24:31;4.20;;;1.50;;
79124;SDS011;68527;39.470;-0.376;2023-11-21T09:27:00;5.80;;;1.50;;
79124;SDS011;68527;39.470;-0.376;2023-11-21T09:29:29;7.50;;;1.70;;
79124;SDS011;68527;39.470;-0.376;2023-11-21T09:34:22;2.50;;;1.00;;
79124;SDS011;68527;39.470;-0.376;2023-11-21T09:36:47;3.10;;;1.30;;
79124;SDS011;68527;39.470;-0.376;2023-11-21T09:39:13;2.60;;;1.20;;
79124;SDS011;68527;39.470;-0.376;2023-11-21T09:41:52;4.70;;;1.00;;
79124;SDS011;68527;39.470;-0.376;2023-11-21T09:44:22;2.80;;;1.10;;
79124;SDS011;68527;39.470;-0.376;2023-11-21T09:47:17;5.20;;;1.60;;
79124;SDS011;68527;39.470;-0.376;2023-11-21T09:49:47;3.10;;;1.30;;
79124;SDS011;68527;39.470;-0.376;2023-11-21T09:52:22;3.60;;;1.10;;
79124;SDS011;68527;39.470;-0.376;2023-11-21T09:54:52;3.10;;;1.20;;
79124;SDS011;68527;39.470;-0.376;2023-11-21T09:57:23;4.90;;;1.20;;
79124;SDS011;68527;39.470;-0.376;2023-11-21T10:02:19;3.10;;;1.20;;
79124;SDS011;68527;39.470;-0.376;2023-11-21T10:04:49;2.10;;;0.90;;
79124;SDS011;68527;39.470;-0.376;2023-11-21T10:07:15;4.30;;;1.20;;
79124;SDS011;68527;39.470;-0.376;2023-11-21T10:09:42;2.10;;;1.00;;
79124;SDS011;68527;39.470;-0.376;2023-11-21T10:12:08;5.30;;;1.20;;
79124;SDS011;68527;39.470;-0.376;2023-11-21T10:14:36;3.10;;;1.00;;
79124;SDS011;68527;39.470;-0.376;2023-11-21T10:17:03;4.70;;;1.10;;
79124;SDS011;68527;39.470;-0.376;2023-11-21T10:19:30;2.10;;;1.20;;
79124;SDS011;68527;39.470;-0.376;2023-11-21T10:24:25;2.90;;;0.80;;
79124;SDS011;68527;39.470;-0.376;2023-11-21T10:26:50;3.20;;;0.90;;
79124;SDS011;68527;39.470;-0.376;2023-11-21T10:29:19;3.40;;;1.20;;
79124;SDS011;68527;39.470;-0.376;2023-11-21T10:31:48;2.30;;;0.90;;
79124;SDS011;68527;39.470;-0.376;2023-11-21T10:34:16;1.70;;;0.90;;
79124;SDS011;68527;39.470;-0.376;2023-11-21T10:36:45;1.90;;;1.00;;
79124;SDS011;68527;39.470;-0.376;2023-11-21T10:39:17;3.30;;;1.20;;
79124;SDS011;68527;39.470;-0.376;2023-11-21T10:41:45;3.10;;;1.00;;
79124;SDS011;68527;39.470;-0.376;2023-11-21T10:44:13;3.50;;;1.10;;
79124;SDS011;68527;39.470;-0.376;2023-11-21T10:46:49;2.90;;;1.00;;
79124;SDS011;68527;39.470;-0.376;2023-11-21T10:49:18;1.80;;;1.00;;
79124;SDS011;68527;39.470;-0.376;2023-11-21T10:51:46;2.10;;;1.00;;
79124;SDS011;68527;39.470;-0.376;2023-11-21T10:54:18;3.00;;;0.90;;
79124;SDS011;68527;39.470;-0.376;2023-11-21T10:56:46;2.40;;;1.00;;
79124;SDS011;68527;39.470;-0.376;2023-11-21T10:59:16;3.50;;;1.40;;
79124;SDS011;68527;39.470;-0.376;2023-11-21T11:01:45;2.60;;;0.90;;
79124;SDS011;68527;39.470;-0.376;2023-11-21T11:04:13;3.90;;;1.00;;
79124;SDS011;68527;39.470;-0.376;2023-11-21T11:06:43;2.50;;;1.10;;
79124;SDS011;68527;39.470;-0.376;2023-11-21T11:09:12;2.90;;;1.20;;
79124;SDS011;68527;39.470;-0.376;2023-11-21T11:11:41;3.70;;;1.40;;
79124;SDS011;68527;39.470;-0.376;2023-11-21T11:14:12;3.10;;;0.90;;
79124;SDS011;68527;39.470;-0.376;2023-11-21T11:16:39;1.90;;;0.90;;
79124;SDS011;68527;39.470;-0.376;2023-11-21T11:19:09;3.10;;;0.90;;
79124;SDS011;68527;39.470;-0.376;2023-11-21T11:32:31;2.60;;;0.90;;
79124;SDS011;68527;39.470;-0.376;2023-11-21T11:35:04;2.40;;;0.80;;
79124;SDS011;68527;39.470;-0.376;2023-11-21T11:37:33;2.30;;;0.80;;
79124;SDS011;68527;39.470;-0.376;2023-11-21T11:40:01;1.40;;;0.80;;
79124;SDS011;68527;39.470;-0.376;2023-11-21T11:42:32;1.60;;;0.90;;
79124;SDS011;68527;39.470;-0.376;2023-11-21T11:45:00;2.20;;;1.00;;
79124;SDS011;68527;39.470;-0.376;2023-11-21T11:47:26;2.30;;;0.90;;
79124;SDS011;68527;39.470;-0.376;2023-11-21T11:50:00;2.10;;;0.80;;
79124;SDS011;68527;39.470;-0.376;2023-11-21T11:54:59;2.30;;;0.90;;
79124;SDS011;68527;39.470;-0.376;2023-11-21T11:57:25;1.60;;;0.90;;
79124;SDS011;68527;39.470;-0.376;2023-11-21T12:02:44;1.50;;;0.70;;
79124;SDS011;68527;39.470;-0.376;2023-11-21T12:05:13;1.20;;;0.60;;
79124;SDS011;68527;39.470;-0.376;2023-11-21T12:07:47;2.40;;;0.90;;
79124;SDS011;68527;39.470;-0.376;2023-11-21T12:10:16;1.40;;;0.80;;
79124;SDS011;68527;39.470;-0.376;2023-11-21T12:12:45;2.10;;;0.90;;
79124;SDS011;68527;39.470;-0.376;2023-11-21T12:15:15;1.60;;;1.10;;
79124;SDS011;68527;39.470;-0.376;2023-11-21T12:17:41;3.90;;;0.80;;
79124;SDS011;68527;39.470;-0.376;2023-11-21T12:20:10;2.60;;;0.90;;
79124;SDS011;68527;39.470;-0.376;2023-11-21T12:27:47;2.50;;;1.60;;
79124;SDS011;68527;39.470;-0.376;2023-11-21T12:30:18;2.10;;;0.90;;
79124;SDS011;68527;39.470;-0.376;2023-11-21T12:32:45;1.40;;;0.70;;
79124;SDS011;68527;39.470;-0.376;2023-11-21T12:35:16;2.40;;;1.00;;
79124;SDS011;68527;39.470;-0.376;2023-11-21T12:37:44;1.30;;;0.60;;
79124;SDS011;68527;39.470;-0.376;2023-11-21T12:40:14;1.90;;;0.70;;
79124;SDS011;68527;39.470;-0.376;2023-11-21T12:42:42;2.00;;;0.80;;
79124;SDS011;68527;39.470;-0.376;2023-11-21T12:45:10;1.90;;;0.90;;
79124;SDS011;68527;39.470;-0.376;2023-11-21T12:47:49;1.70;;;0.80;;
79124;SDS011;68527;39.470;-0.376;2023-11-21T12:50:18;1.30;;;0.70;;
79124;SDS011;68527;39.470;-0.376;2023-11-21T12:52:50;1.70;;;1.00;;
79124;SDS011;68527;39.470;-0.376;2023-11-21T12:55:19;1.60;;;0.60;;
79124;SDS011;68527;39.470;-0.376;2023-11-21T12:57:51;2.20;;;0.80;;
79124;SDS011;68527;39.470;-0.376;2023-11-21T13:00:29;1.00;;;0.60;;
79124;SDS011;68527;39.470;-0.376;2023-11-21T13:02:58;2.30;;;0.70;;
79124;SDS011;68527;39.470;-0.376;2023-11-21T13:05:27;2.20;;;1.00;;
79124;SDS011;68527;39.470;-0.376;2023-11-21T13:08:02;1.90;;;0.80;;
79124;SDS011;68527;39.470;-0.376;2023-11-21T13:10:30;2.40;;;0.90;;
79124;SDS011;68527;39.470;-0.376;2023-11-21T13:12:58;1.40;;;0.80;;
79124;SDS011;68527;39.470;-0.376;2023-11-21T13:15:25;2.40;;;0.70;;
79124;SDS011;68527;39.470;-0.376;2023-11-21T13:17:57;1.30;;;0.60;;
79124;SDS011;68527;39.470;-0.376;2023-11-21T13:20:24;1.80;;;0.90;;
79124;SDS011;68527;39.470;-0.376;2023-11-21T13:22:56;1.10;;;0.60;;
79124;SDS011;68527;39.470;-0.376;2023-11-21T13:25:25;0.80;;;0.50;;
79124;SDS011;68527;39.470;-0.376;2023-11-21T13:27:55;1.50;;;0.80;;
79124;SDS011;68527;39.470;-0.376;2023-11-21T13:30:20;1.50;;;0.90;;
79124;SDS011;68527;39.470;-0.376;2023-11-21T13:32:54;2.70;;;0.80;;
79124;SDS011;68527;39.470;-0.376;2023-11-21T13:35:22;1.90;;;0.70;;
79124;SDS011;68527;39.470;-0.376;2023-11-21T13:38:03;1.80;;;0.60;;
79124;SDS011;68527;39.470;-0.376;2023-11-21T13:40:33;1.30;;;0.60;;
79124;SDS011;68527;39.470;-0.376;2023-11-21T13:43:09;1.60;;;0.70;;
79124;SDS011;68527;39.470;-0.376;2023-11-21T13:45:38;1.90;;;0.80;;
79124;SDS011;68527;39.470;-0.376;2023-11-21T13:48:09;2.10;;;0.80;;
79124;SDS011;68527;39.470;-0.376;2023-11-21T13:50:41;1.90;;;0.70;;
79124;SDS011;68527;39.470;-0.376;2023-11-21T13:53:25;2.80;;;0.70;;
79124;SDS011;68527;39.470;-0.376;2023-11-21T13:55:54;1.70;;;0.90;;
79124;SDS011;68527;39.470;-0.376;2023-11-21T13:58:27;1.20;;;0.60;;
79124;SDS011;68527;39.470;-0.376;2023-11-21T14:01:13;1.70;;;0.80;;
79124;SDS011;68527;39.470;-0.376;2023-11-21T14:03:58;1.50;;;0.90;;
79124;SDS011;68527;39.470;-0.376;2023-11-21T14:06:38;2.20;;;0.60;;
79124;SDS011;68527;39.470;-0.376;2023-11-21T14:09:28;1.20;;;0.60;;
79124;SDS011;68527;39.470;-0.376;2023-11-21T14:12:20;3.90;;;0.70;;
79124;SDS011;68527;39.470;-0.376;2023-11-21T14:14:46;1.70;;;0.70;;
79124;SDS011;68527;39.470;-0.376;2023-11-21T14:17:12;1.30;;;0.70;;
79124;SDS011;68527;39.470;-0.376;2023-11-21T14:19:38;2.20;;;0.80;;
79124;SDS011;68527;39.470;-0.376;2023-11-21T14:22:10;1.50;;;1.00;;
79124;SDS011;68527;39.470;-0.376;2023-11-21T14:24:36;1.90;;;0.80;;
79124;SDS011;68527;39.470;-0.376;2023-11-21T14:27:02;3.70;;;0.90;;
79124;SDS011;68527;39.470;-0.376;2023-11-21T14:29:30;1.80;;;0.80;;
79124;SDS011;68527;39.470;-0.376;2023-11-21T14:34:26;1.40;;;0.70;;
79124;SDS011;68527;39.470;-0.376;2023-11-21T14:36:53;2.40;;;1.20;;
79124;SDS011;68527;39.470;-0.376;2023-11-21T14:39:19;1.40;;;0.70;;
79124;SDS011;68527;39.470;-0.376;2023-11-21T14:41:51;1.50;;;0.80;;
79124;SDS011;68527;39.470;-0.376;2023-11-21T14:44:19;2.40;;;0.70;;
79124;SDS011;68527;39.470;-0.376;2023-11-21T14:46:46;2.70;;;0.70;;
79124;SDS011;68527;39.470;-0.376;2023-11-21T14:49:14;1.30;;;1.10;;
79124;SDS011;68527;39.470;-0.376;2023-11-21T14:51:51;2.10;;;0.70;;
79124;SDS011;68527;39.470;-0.376;2023-11-21T14:54:21;2.80;;;0.70;;
79124;SDS011;68527;39.470;-0.376;2023-11-21T14:57:11;2.70;;;0.80;;
79124;SDS011;68527;39.470;-0.376;2023-11-21T14:59:43;2.00;;;0.90;;
79124;SDS011;68527;39.470;-0.376;2023-11-21T15:02:15;2.40;;;1.00;;
79124;SDS011;68527;39.470;-0.376;2023-11-21T15:04:48;2.20;;;0.70;;
79124;SDS011;68527;39.470;-0.376;2023-11-21T15:07:17;1.70;;;0.80;;
79124;SDS011;68527;39.470;-0.376;2023-11-21T15:09:43;1.90;;;0.80;;
79124;SDS011;68527;39.470;-0.376;2023-11-21T15:12:10;2.30;;;0.70;;
79124;SDS011;68527;39.470;-0.376;2023-11-21T15:14:44;1.40;;;0.60;;
79124;SDS011;68527;39.470;-0.376;2023-11-21T15:17:12;2.60;;;0.80;;
79124;SDS011;68527;39.470;-0.376;2023-11-21T15:19:50;1.20;;;0.60;;
79124;SDS011;68527;39.470;-0.376;2023-11-21T15:22:16;2.70;;;0.70;;